SXSPR LGAV-LGSK
Flight info
| Callsign | SXSPR |
|---|---|
| Flight time | 0h 40m |
| Altitude | 12000 |
| Route | LOFISKOS KOUKOUNARIES |
| Aircraft | B350/L-SBGRY/S |
Departure
| Time | 2026-04-21 10:13 |
|---|---|
| Airport | Athens Eleftherios Venizelos International Airport (LGAV) |
Arrival
| Time | 2026-04-21 10:53 |
|---|---|
| Airport | Skiathos Island National Airport (LGSK) |
| Time | Latitude | Longitude | Altitude | Speed | Heading |
|---|---|---|---|---|---|
| 2026-04-21 09:48 | 37.95044 | 23.96199 | 299 ft | 0 kts | 39° |
| 2026-04-21 10:09 | 37.95046 | 23.96212 | 297 ft | 6 kts | 121° |
| 2026-04-21 10:10 | 37.95004 | 23.96267 | 297 ft | 14 kts | 123° |
| 2026-04-21 10:10 | 37.94959 | 23.96363 | 297 ft | 13 kts | 93° |
| 2026-04-21 10:10 | 37.95035 | 23.96455 | 299 ft | 26 kts | 39° |
| 2026-04-21 10:10 | 37.95190 | 23.96603 | 299 ft | 24 kts | 37° |
| 2026-04-21 10:11 | 37.95229 | 23.96692 | 298 ft | 10 kts | 128° |
| 2026-04-21 10:11 | 37.95246 | 23.96799 | 301 ft | 16 kts | 28° |
| 2026-04-21 10:11 | 37.95303 | 23.96881 | 302 ft | 14 kts | 86° |
| 2026-04-21 10:11 | 37.95262 | 23.96960 | 305 ft | 8 kts | 128° |
| 2026-04-21 10:12 | 37.95229 | 23.97023 | 306 ft | 13 kts | 126° |
| 2026-04-21 10:12 | 37.95195 | 23.97015 | 306 ft | 11 kts | 205° |
| 2026-04-21 10:12 | 37.95081 | 23.96919 | 305 ft | 28 kts | 217° |
| 2026-04-21 10:12 | 37.94608 | 23.96476 | 296 ft | 127 kts | 217° |
| 2026-04-21 10:13 | 37.93856 | 23.95681 | 556 ft | 151 kts | 218° |
| 2026-04-21 10:13 | 37.92935 | 23.95053 | 937 ft | 154 kts | 194° |
| 2026-04-21 10:13 | 37.91817 | 23.95031 | 1109 ft | 164 kts | 177° |
| 2026-04-21 10:13 | 37.90672 | 23.95120 | 1445 ft | 171 kts | 182° |
| 2026-04-21 10:14 | 37.89492 | 23.95372 | 2109 ft | 165 kts | 159° |
| 2026-04-21 10:14 | 37.88598 | 23.96431 | 2598 ft | 189 kts | 123° |
| 2026-04-21 10:14 | 37.88033 | 23.98035 | 2788 ft | 210 kts | 109° |
| 2026-04-21 10:14 | 37.87923 | 23.99971 | 2616 ft | 226 kts | 82° |
| 2026-04-21 10:15 | 37.88527 | 24.01593 | 2594 ft | 195 kts | 47° |
| 2026-04-21 10:15 | 37.89641 | 24.02385 | 2614 ft | 190 kts | 15° |
| 2026-04-21 10:15 | 37.90929 | 24.02879 | 2600 ft | 195 kts | 16° |
| 2026-04-21 10:15 | 37.92203 | 24.03414 | 2617 ft | 191 kts | 18° |
| 2026-04-21 10:16 | 37.93460 | 24.03945 | 2618 ft | 190 kts | 18° |
| 2026-04-21 10:16 | 37.94712 | 24.04460 | 2609 ft | 187 kts | 18° |
| 2026-04-21 10:16 | 37.95948 | 24.04972 | 2608 ft | 187 kts | 19° |
| 2026-04-21 10:16 | 37.97187 | 24.05468 | 2613 ft | 187 kts | 17° |
| 2026-04-21 10:17 | 37.98358 | 24.06142 | 2633 ft | 185 kts | 44° |
| 2026-04-21 10:17 | 37.98918 | 24.07563 | 2633 ft | 184 kts | 89° |
| 2026-04-21 10:17 | 37.98633 | 24.09120 | 2629 ft | 183 kts | 113° |
| 2026-04-21 10:17 | 37.98296 | 24.10677 | 2616 ft | 185 kts | 97° |
| 2026-04-21 10:18 | 37.98300 | 24.12307 | 2651 ft | 183 kts | 89° |
| 2026-04-21 10:18 | 37.98373 | 24.13956 | 3182 ft | 186 kts | 88° |
| 2026-04-21 10:18 | 37.98427 | 24.15592 | 4005 ft | 187 kts | 88° |
| 2026-04-21 10:18 | 37.98475 | 24.17247 | 4783 ft | 190 kts | 89° |
| 2026-04-21 10:19 | 37.98524 | 24.18939 | 5534 ft | 194 kts | 89° |
| 2026-04-21 10:19 | 37.98576 | 24.20661 | 6297 ft | 196 kts | 90° |
| 2026-04-21 10:19 | 37.98627 | 24.22403 | 7016 ft | 199 kts | 89° |
| 2026-04-21 10:19 | 37.98680 | 24.24166 | 7780 ft | 202 kts | 88° |
| 2026-04-21 10:20 | 37.98733 | 24.25962 | 8539 ft | 205 kts | 88° |
| 2026-04-21 10:20 | 37.98785 | 24.27782 | 9290 ft | 208 kts | 86° |
| 2026-04-21 10:20 | 37.98840 | 24.29620 | 10040 ft | 210 kts | 86° |
| 2026-04-21 10:20 | 37.98894 | 24.31481 | 10712 ft | 213 kts | 86° |
| 2026-04-21 10:21 | 37.98947 | 24.33370 | 11390 ft | 216 kts | 86° |
| 2026-04-21 10:21 | 37.99003 | 24.35308 | 11951 ft | 229 kts | 86° |
| 2026-04-21 10:21 | 37.99061 | 24.37460 | 11973 ft | 256 kts | 87° |
| 2026-04-21 10:21 | 37.99112 | 24.39742 | 11988 ft | 269 kts | 88° |
| 2026-04-21 10:22 | 37.99161 | 24.42150 | 11986 ft | 276 kts | 87° |
| 2026-04-21 10:22 | 37.99247 | 24.44512 | 11985 ft | 256 kts | 86° |
| 2026-04-21 10:22 | 37.99326 | 24.46677 | 11987 ft | 242 kts | 86° |
| 2026-04-21 10:22 | 37.99381 | 24.48813 | 11984 ft | 242 kts | 87° |
| 2026-04-21 10:23 | 37.99431 | 24.50941 | 11975 ft | 241 kts | 86° |
| 2026-04-21 10:23 | 37.99489 | 24.53050 | 11973 ft | 239 kts | 86° |
| 2026-04-21 10:23 | 37.99553 | 24.55156 | 11965 ft | 239 kts | 83° |
| 2026-04-21 10:23 | 38.00082 | 24.57097 | 11961 ft | 231 kts | 51° |
| 2026-04-21 10:24 | 38.01252 | 24.58418 | 11965 ft | 224 kts | 29° |
| 2026-04-21 10:24 | 38.02584 | 24.59444 | 11964 ft | 224 kts | 26° |
| 2026-04-21 10:24 | 38.03928 | 24.60438 | 11965 ft | 224 kts | 26° |
| 2026-04-21 10:24 | 38.05275 | 24.61422 | 11965 ft | 223 kts | 26° |
| 2026-04-21 10:25 | 38.06622 | 24.62407 | 11963 ft | 223 kts | 26° |
| 2026-04-21 10:25 | 38.07969 | 24.63389 | 11960 ft | 223 kts | 25° |
| 2026-04-21 10:25 | 38.09423 | 24.63864 | 11961 ft | 213 kts | 353° |
| 2026-04-21 10:25 | 38.10851 | 24.63475 | 11963 ft | 210 kts | 340° |
| 2026-04-21 10:26 | 38.12241 | 24.62919 | 11961 ft | 210 kts | 339° |
| 2026-04-21 10:26 | 38.13610 | 24.62291 | 11962 ft | 209 kts | 335° |
| 2026-04-21 10:26 | 38.14946 | 24.61567 | 11962 ft | 209 kts | 334° |
| 2026-04-21 10:26 | 38.16276 | 24.60833 | 11962 ft | 209 kts | 334° |
| 2026-04-21 10:27 | 38.17609 | 24.60095 | 11962 ft | 211 kts | 334° |
| 2026-04-21 10:27 | 38.18966 | 24.59342 | 11962 ft | 213 kts | 334° |
| 2026-04-21 10:27 | 38.20322 | 24.58590 | 11961 ft | 212 kts | 334° |
| 2026-04-21 10:27 | 38.21654 | 24.57850 | 11962 ft | 212 kts | 334° |
| 2026-04-21 10:28 | 38.23004 | 24.57098 | 11961 ft | 212 kts | 334° |
| 2026-04-21 10:28 | 38.24353 | 24.56348 | 11974 ft | 212 kts | 334° |
| 2026-04-21 10:28 | 38.25701 | 24.55601 | 11973 ft | 212 kts | 334° |
| 2026-04-21 10:28 | 38.27054 | 24.54856 | 11972 ft | 212 kts | 334° |
| 2026-04-21 10:29 | 38.28406 | 24.54112 | 11970 ft | 212 kts | 334° |
| 2026-04-21 10:29 | 38.29755 | 24.53369 | 11969 ft | 212 kts | 334° |
| 2026-04-21 10:29 | 38.31106 | 24.52625 | 11967 ft | 212 kts | 334° |
| 2026-04-21 10:29 | 38.32457 | 24.51881 | 11962 ft | 212 kts | 334° |
| 2026-04-21 10:30 | 38.33807 | 24.51137 | 11959 ft | 211 kts | 334° |
| 2026-04-21 10:30 | 38.35156 | 24.50396 | 11951 ft | 211 kts | 334° |
| 2026-04-21 10:30 | 38.36050 | 24.49904 | 11959 ft | 211 kts | 334° |
| 2026-04-21 10:30 | 38.37401 | 24.49164 | 11959 ft | 211 kts | 334° |
| 2026-04-21 10:31 | 38.38750 | 24.48422 | 11957 ft | 211 kts | 334° |
| 2026-04-21 10:31 | 38.40101 | 24.47680 | 11956 ft | 211 kts | 334° |
| 2026-04-21 10:31 | 38.41450 | 24.46938 | 11957 ft | 211 kts | 334° |
| 2026-04-21 10:31 | 38.42803 | 24.46194 | 11955 ft | 211 kts | 334° |
| 2026-04-21 10:32 | 38.44154 | 24.45451 | 11954 ft | 211 kts | 334° |
| 2026-04-21 10:32 | 38.45505 | 24.44707 | 11951 ft | 211 kts | 334° |
| 2026-04-21 10:32 | 38.46856 | 24.43964 | 11947 ft | 211 kts | 334° |
| 2026-04-21 10:32 | 38.48207 | 24.43219 | 11954 ft | 211 kts | 334° |
| 2026-04-21 10:33 | 38.49557 | 24.42477 | 11958 ft | 211 kts | 334° |
| 2026-04-21 10:33 | 38.50910 | 24.41737 | 11956 ft | 211 kts | 334° |
| 2026-04-21 10:33 | 38.52264 | 24.40997 | 11955 ft | 211 kts | 334° |
| 2026-04-21 10:33 | 38.53614 | 24.40260 | 11946 ft | 211 kts | 334° |
| 2026-04-21 10:34 | 38.54970 | 24.39520 | 11946 ft | 211 kts | 334° |
| 2026-04-21 10:34 | 38.56321 | 24.38781 | 11951 ft | 211 kts | 334° |
| 2026-04-21 10:34 | 38.57583 | 24.37867 | 11949 ft | 208 kts | 318° |
| 2026-04-21 10:34 | 38.58600 | 24.36563 | 11951 ft | 207 kts | 311° |
| 2026-04-21 10:35 | 38.59554 | 24.35192 | 11945 ft | 207 kts | 310° |
| 2026-04-21 10:35 | 38.60502 | 24.33811 | 11946 ft | 207 kts | 310° |
| 2026-04-21 10:35 | 38.61755 | 24.31982 | 11939 ft | 206 kts | 310° |
| 2026-04-21 10:35 | 38.62393 | 24.31048 | 11942 ft | 206 kts | 310° |
| 2026-04-21 10:36 | 38.63339 | 24.29666 | 11945 ft | 207 kts | 310° |
| 2026-04-21 10:36 | 38.64285 | 24.28281 | 11944 ft | 206 kts | 310° |
| 2026-04-21 10:36 | 38.65230 | 24.26901 | 11950 ft | 206 kts | 310° |
| 2026-04-21 10:36 | 38.66178 | 24.25515 | 11945 ft | 206 kts | 310° |
| 2026-04-21 10:37 | 38.67125 | 24.24131 | 11942 ft | 207 kts | 310° |
| 2026-04-21 10:37 | 38.68059 | 24.22765 | 11939 ft | 207 kts | 310° |
| 2026-04-21 10:37 | 38.69006 | 24.21381 | 11940 ft | 207 kts | 310° |
| 2026-04-21 10:37 | 38.69953 | 24.19995 | 11943 ft | 207 kts | 310° |
| 2026-04-21 10:38 | 38.70898 | 24.18613 | 11944 ft | 206 kts | 310° |
| 2026-04-21 10:38 | 38.71844 | 24.17228 | 11941 ft | 207 kts | 310° |
| 2026-04-21 10:38 | 38.72789 | 24.15843 | 11945 ft | 206 kts | 310° |
| 2026-04-21 10:38 | 38.73734 | 24.14458 | 11936 ft | 207 kts | 310° |
| 2026-04-21 10:39 | 38.74678 | 24.13073 | 11938 ft | 206 kts | 310° |
| 2026-04-21 10:39 | 38.75622 | 24.11691 | 11937 ft | 206 kts | 310° |
| 2026-04-21 10:39 | 38.76567 | 24.10304 | 11933 ft | 206 kts | 310° |
| 2026-04-21 10:39 | 38.77512 | 24.08919 | 11938 ft | 206 kts | 310° |
| 2026-04-21 10:40 | 38.78456 | 24.07534 | 11943 ft | 207 kts | 310° |
| 2026-04-21 10:40 | 38.79406 | 24.06149 | 11943 ft | 207 kts | 310° |
| 2026-04-21 10:40 | 38.80358 | 24.04769 | 11939 ft | 207 kts | 310° |
| 2026-04-21 10:40 | 38.81312 | 24.03388 | 11939 ft | 207 kts | 310° |
| 2026-04-21 10:41 | 38.82265 | 24.02010 | 11937 ft | 207 kts | 310° |
| 2026-04-21 10:41 | 38.83221 | 24.00627 | 11929 ft | 207 kts | 310° |
| 2026-04-21 10:41 | 38.84175 | 23.99245 | 11933 ft | 207 kts | 310° |
| 2026-04-21 10:41 | 38.85130 | 23.97866 | 11934 ft | 207 kts | 310° |
| 2026-04-21 10:42 | 38.86082 | 23.96488 | 11935 ft | 207 kts | 310° |
| 2026-04-21 10:42 | 38.87036 | 23.95106 | 11935 ft | 207 kts | 310° |
| 2026-04-21 10:42 | 38.87989 | 23.93726 | 11935 ft | 207 kts | 310° |
| 2026-04-21 10:42 | 38.88942 | 23.92345 | 11934 ft | 207 kts | 310° |
| 2026-04-21 10:43 | 38.89895 | 23.90964 | 11935 ft | 207 kts | 310° |
| 2026-04-21 10:43 | 38.90849 | 23.89580 | 11934 ft | 207 kts | 310° |
| 2026-04-21 10:43 | 38.91802 | 23.88199 | 11934 ft | 207 kts | 310° |
| 2026-04-21 10:43 | 38.92732 | 23.86855 | 11636 ft | 200 kts | 310° |
| 2026-04-21 10:44 | 38.93691 | 23.85464 | 11420 ft | 205 kts | 310° |
| 2026-04-21 10:44 | 38.94632 | 23.84102 | 11018 ft | 205 kts | 310° |
| 2026-04-21 10:44 | 38.95577 | 23.82731 | 10610 ft | 204 kts | 310° |
| 2026-04-21 10:44 | 38.96514 | 23.81369 | 10221 ft | 203 kts | 310° |
| 2026-04-21 10:45 | 38.97447 | 23.80013 | 9834 ft | 202 kts | 310° |
| 2026-04-21 10:45 | 38.98160 | 23.78481 | 9390 ft | 200 kts | 294° |
| 2026-04-21 10:45 | 38.98733 | 23.76859 | 8982 ft | 199 kts | 295° |
| 2026-04-21 10:45 | 38.99301 | 23.75299 | 8928 ft | 187 kts | 295° |
| 2026-04-21 10:46 | 38.99851 | 23.73801 | 8791 ft | 186 kts | 295° |
| 2026-04-21 10:46 | 39.00405 | 23.72311 | 8675 ft | 184 kts | 295° |
| 2026-04-21 10:46 | 39.00958 | 23.70826 | 8542 ft | 184 kts | 295° |
| 2026-04-21 10:46 | 39.01511 | 23.69341 | 8413 ft | 184 kts | 295° |
| 2026-04-21 10:47 | 39.02055 | 23.67880 | 8286 ft | 184 kts | 295° |
| 2026-04-21 10:47 | 39.02608 | 23.66400 | 7967 ft | 180 kts | 295° |
| 2026-04-21 10:47 | 39.03142 | 23.64967 | 7620 ft | 177 kts | 295° |
| 2026-04-21 10:47 | 39.03671 | 23.63551 | 7297 ft | 174 kts | 295° |
| 2026-04-21 10:48 | 39.04193 | 23.62148 | 6995 ft | 173 kts | 295° |
| 2026-04-21 10:48 | 39.04712 | 23.60754 | 6668 ft | 173 kts | 295° |
| 2026-04-21 10:48 | 39.05235 | 23.59355 | 6338 ft | 174 kts | 295° |
| 2026-04-21 10:48 | 39.05758 | 23.57954 | 5981 ft | 174 kts | 295° |
| 2026-04-21 10:49 | 39.06451 | 23.56694 | 5644 ft | 176 kts | 320° |
| 2026-04-21 10:49 | 39.07473 | 23.55821 | 5297 ft | 177 kts | 326° |
| 2026-04-21 10:49 | 39.08519 | 23.54982 | 4775 ft | 170 kts | 326° |
| 2026-04-21 10:49 | 39.09437 | 23.54252 | 3969 ft | 143 kts | 326° |
| 2026-04-21 10:50 | 39.10240 | 23.53611 | 3201 ft | 131 kts | 326° |
| 2026-04-21 10:50 | 39.10971 | 23.53026 | 2777 ft | 113 kts | 324° |
| 2026-04-21 10:50 | 39.11636 | 23.52426 | 2185 ft | 117 kts | 320° |
| 2026-04-21 10:50 | 39.12295 | 23.51819 | 1629 ft | 119 kts | 326° |
| 2026-04-21 10:51 | 39.12973 | 23.51253 | 1177 ft | 114 kts | 324° |
| 2026-04-21 10:51 | 39.13675 | 23.50552 | 1052 ft | 134 kts | 318° |
| 2026-04-21 10:51 | 39.14393 | 23.49813 | 918 ft | 114 kts | 326° |
| 2026-04-21 10:51 | 39.15094 | 23.49435 | 468 ft | 112 kts | 355° |
| 2026-04-21 10:52 | 39.15840 | 23.49507 | 184 ft | 104 kts | 16° |
| 2026-04-21 10:52 | 39.16592 | 23.49857 | 121 ft | 124 kts | 23° |
| 2026-04-21 10:52 | 39.17388 | 23.50218 | 40 ft | 109 kts | 21° |
| 2026-04-21 10:52 | 39.17991 | 23.50492 | 43 ft | 107 kts | 20° |
| 2026-04-21 10:53 | 39.18535 | 23.50754 | 55 ft | 53 kts | 22° |
| 2026-04-21 10:53 | 39.17554 | 23.50294 | 36 ft | 0 kts | 21° |
| 2026-04-21 10:53 | 39.17685 | 23.50342 | 37 ft | 28 kts | 344° |
| 2026-04-21 10:53 | 39.17731 | 23.50238 | 35 ft | 6 kts | 284° |
| 2026-04-21 10:54 | 39.17714 | 23.50195 | 35 ft | 10 kts | 183° |
| 2026-04-21 10:54 | 39.17703 | 23.50224 | 35 ft | 0 kts | 107° |